createdAt,value
2022-11-28T00:00:27.866Z,13.27
2022-11-28T00:05:31.420Z,16.75
2022-11-28T00:10:38.652Z,12.65
2022-11-28T00:15:43.973Z,15.55
2022-11-28T00:20:47.805Z,12.82
2022-11-28T00:25:58.793Z,12.95
2022-11-28T00:31:04.307Z,17.38
2022-11-28T00:36:08.538Z,17.45
2022-11-28T00:41:14.775Z,12.90
2022-11-28T00:46:21.435Z,14.90
2022-11-28T00:51:26.516Z,11.85
2022-11-28T00:56:32.325Z,11.83
2022-11-28T01:01:39.785Z,12.80
2022-11-28T01:06:44.964Z,13.20
2022-11-28T01:11:49.415Z,15.17
2022-11-28T01:16:54.619Z,14.70
2022-11-28T01:21:58.164Z,14.93
2022-11-28T01:27:01.724Z,12.43
2022-11-28T01:32:06.994Z,11.60
2022-11-28T01:37:10.524Z,10.70
2022-11-28T01:42:18.588Z,12.60
2022-11-28T01:47:31.080Z,11.30
2022-11-28T01:52:36.926Z,12.00
2022-11-28T01:57:41.376Z,12.88
2022-11-28T02:02:49.592Z,15.38
2022-11-28T02:07:53.597Z,24.55
2022-11-28T02:13:26.299Z,21.70
2022-11-28T02:18:50.725Z,20.85
2022-11-28T02:24:18.837Z,15.70
2022-11-28T02:29:51.934Z,12.00
2022-11-28T02:35:03.675Z,18.88
2022-11-28T02:40:16.223Z,16.00
2022-11-28T02:45:30.165Z,19.90
2022-11-28T02:50:41.113Z,17.15
2022-11-28T02:55:45.598Z,12.90
2022-11-28T03:00:51.436Z,12.45
2022-11-28T03:06:03.383Z,11.10
2022-11-28T03:11:16.282Z,16.52
2022-11-28T03:16:27.942Z,13.35
2022-11-28T03:21:39.801Z,13.85
2022-11-28T03:26:53.384Z,12.50
2022-11-28T03:32:01.960Z,15.25
2022-11-28T03:37:12.170Z,11.20
2022-11-28T03:42:21.811Z,13.48
2022-11-28T03:47:27.943Z,12.20
2022-11-28T03:52:37.842Z,12.60
2022-11-28T03:57:45.946Z,14.05
2022-11-28T04:02:58.044Z,13.50
2022-11-28T04:08:11.932Z,13.27
2022-11-28T04:13:22.236Z,12.10
2022-11-28T04:18:30.472Z,12.25
2022-11-28T04:23:38.630Z,12.90
2022-11-28T04:28:43.690Z,10.63
2022-11-28T04:33:52.170Z,13.75
2022-11-28T04:38:59.991Z,10.93
2022-11-28T04:44:09.624Z,8.50
2022-11-28T04:49:13.856Z,13.60
2022-11-28T04:54:25.128Z,11.80
2022-11-28T04:59:31.731Z,9.85
2022-11-28T05:04:37.599Z,10.40
2022-11-28T05:09:42.812Z,9.13
2022-11-28T05:14:46.402Z,10.05
2022-11-28T05:19:49.951Z,12.10
2022-11-28T05:24:55.146Z,8.93
2022-11-28T05:29:58.705Z,8.88
2022-11-28T05:35:02.283Z,10.65
2022-11-28T05:40:10.599Z,8.60
2022-11-28T05:45:14.145Z,9.45
2022-11-28T05:50:17.788Z,9.57
2022-11-28T05:55:22.999Z,8.55
2022-11-28T06:00:26.736Z,8.20
2022-11-28T06:05:42.113Z,9.45
2022-11-28T06:10:57.435Z,10.10
2022-11-28T06:16:01.055Z,11.20
2022-11-28T06:21:05.589Z,10.23
2022-11-28T06:26:12.368Z,8.90
2022-11-28T06:31:17.396Z,9.73
2022-11-28T06:36:21.070Z,10.23
2022-11-28T06:41:26.245Z,12.32
2022-11-28T06:46:29.854Z,11.30
2022-11-28T06:51:34.243Z,11.63
2022-11-28T06:56:41.164Z,9.98
2022-11-28T07:01:44.765Z,10.18
2022-11-28T07:06:49.004Z,10.50
2022-11-28T07:11:54.168Z,10.40
2022-11-28T07:16:57.734Z,10.00
2022-11-28T07:22:01.415Z,11.80
2022-11-28T07:27:06.617Z,13.70
2022-11-28T07:32:10.412Z,13.52
2022-11-28T07:37:14.120Z,11.60
2022-11-28T07:42:19.295Z,9.23
2022-11-28T07:47:22.948Z,13.02
2022-11-28T07:52:26.493Z,8.73
2022-11-28T07:57:31.696Z,10.32
2022-11-28T08:02:35.280Z,13.00
2022-11-28T08:07:38.997Z,14.75
2022-11-28T08:12:45.331Z,13.80
2022-11-28T08:17:48.902Z,11.02
2022-11-28T08:22:52.477Z,17.38
2022-11-28T08:27:57.692Z,12.18
2022-11-28T08:33:01.242Z,13.48
2022-11-28T08:38:04.825Z,13.27
2022-11-28T08:43:10.033Z,10.85
2022-11-28T08:48:13.606Z,11.50
2022-11-28T08:53:18.441Z,11.05
2022-11-28T08:58:23.916Z,14.95
2022-11-28T09:03:27.599Z,11.20
2022-11-28T09:08:31.209Z,12.35
2022-11-28T09:13:36.836Z,12.65
2022-11-28T09:18:40.591Z,11.33
2022-11-28T09:23:45.607Z,11.90
2022-11-28T09:34:17.808Z,9.95
2022-11-28T09:39:21.341Z,12.32
2022-11-28T09:44:34.409Z,12.52
2022-11-28T09:49:45.091Z,15.57
2022-11-28T09:54:53.869Z,11.95
2022-11-28T09:59:59.112Z,11.40
2022-11-28T10:05:10.823Z,13.02
2022-11-28T10:10:23.846Z,11.82
2022-11-28T10:15:36.812Z,10.05
2022-11-28T10:20:44.146Z,13.10
2022-11-28T10:25:51.650Z,10.18
2022-11-28T10:31:02.410Z,13.15
2022-11-28T10:36:07.059Z,11.70
2022-11-28T10:41:18.329Z,9.82
2022-11-28T10:46:38.662Z,11.50
2022-11-28T10:51:49.469Z,10.82
2022-11-28T10:57:02.351Z,8.23
2022-11-28T11:02:22.643Z,9.40
2022-11-28T11:07:30.444Z,10.50
2022-11-28T11:12:36.050Z,8.32
2022-11-28T11:17:41.319Z,6.90
2022-11-28T11:22:55.491Z,10.10
2022-11-28T11:28:01.127Z,9.73
2022-11-28T11:33:14.549Z,9.10
2022-11-28T11:38:27.190Z,8.05
2022-11-28T11:43:32.149Z,10.40
2022-11-28T11:48:42.137Z,10.10
2022-11-28T11:53:45.937Z,8.23
2022-11-28T11:58:54.533Z,8.15
2022-11-28T12:04:13.296Z,7.97
2022-11-28T12:09:30.128Z,7.18
2022-11-28T12:14:35.149Z,6.30
2022-11-28T12:19:55.329Z,7.20
2022-11-28T12:25:11.007Z,7.25
2022-11-28T12:30:27.364Z,5.00
2022-11-28T12:35:39.543Z,6.38
2022-11-28T12:40:58.340Z,5.07
2022-11-28T12:46:12.091Z,3.92
2022-11-28T12:51:27.854Z,4.55
2022-11-28T12:56:42.166Z,3.93
2022-11-28T13:02:03.978Z,2.83
2022-11-28T13:07:23.395Z,4.35
2022-11-28T13:17:43.501Z,2.63
2022-11-28T13:23:09.616Z,3.38
2022-11-28T13:28:21.533Z,1.87
2022-11-28T13:33:40.066Z,2.40
2022-11-28T13:39:12.460Z,3.08
2022-11-28T13:44:22.482Z,2.95
2022-11-28T13:49:27.417Z,2.35
2022-11-28T13:54:43.391Z,2.00
2022-11-28T13:59:51.784Z,2.80
2022-11-28T14:04:55.567Z,1.95
2022-11-28T14:10:33.677Z,1.92
2022-11-28T14:15:47.342Z,6.63
2022-11-28T14:20:58.044Z,1.77
2022-11-28T14:26:12.582Z,3.15
2022-11-28T14:31:26.270Z,2.05
2022-11-28T14:36:31.527Z,3.13
2022-11-28T14:42:51.915Z,3.00
2022-11-28T14:48:18.730Z,2.25
2022-11-28T14:53:54.845Z,2.10
2022-11-28T14:59:03.212Z,2.25
2022-11-28T15:04:27.926Z,0.85
2022-11-28T15:09:38.773Z,3.10
2022-11-28T15:14:47.965Z,1.80
2022-11-28T15:19:52.375Z,1.15
2022-11-28T15:25:01.501Z,1.98
2022-11-28T15:30:19.343Z,2.83
2022-11-28T15:35:22.965Z,2.65
2022-11-28T15:40:29.736Z,2.35
2022-11-28T15:45:36.361Z,3.10
2022-11-28T15:50:51.219Z,2.03
2022-11-28T15:56:11.881Z,2.33
2022-11-28T16:01:20.039Z,2.80
2022-11-28T16:06:25.886Z,2.25
2022-11-28T16:11:31.084Z,2.72
2022-11-28T16:16:39.200Z,3.42
2022-11-28T16:21:51.075Z,3.28
2022-11-28T16:26:57.202Z,0.90
2022-11-28T16:32:21.907Z,2.47
2022-11-28T16:37:27.721Z,0.70
2022-11-28T16:42:32.094Z,1.85
2022-11-28T16:47:37.380Z,1.00
2022-11-28T16:52:46.893Z,1.80
2022-11-28T16:57:57.703Z,1.95
2022-11-28T17:03:02.973Z,1.25
2022-11-28T17:08:08.175Z,1.97
2022-11-28T17:13:13.587Z,1.73
2022-11-28T17:18:18.764Z,3.07
2022-11-28T17:23:22.392Z,4.47
2022-11-28T17:28:29.125Z,2.65
2022-11-28T17:33:34.561Z,3.30
2022-11-28T17:38:38.139Z,0.80
2022-11-28T17:43:42.216Z,4.03
2022-11-28T17:48:47.471Z,1.75
2022-11-28T17:53:51.027Z,0.70
2022-11-28T17:58:54.715Z,1.33
2022-11-28T18:04:00.684Z,1.33
2022-11-28T18:14:18.120Z,0.57
2022-11-28T18:19:24.859Z,3.25
2022-11-28T18:24:28.454Z,1.50
2022-11-28T18:29:32.101Z,1.33
2022-11-28T18:34:38.408Z,1.70
2022-11-28T18:39:42.346Z,2.20
2022-11-28T18:44:46.121Z,4.80
2022-11-28T18:49:52.324Z,1.83
2022-11-28T18:54:56.064Z,1.70
2022-11-28T19:00:00.258Z,1.58
2022-11-28T19:05:06.469Z,1.67
2022-11-28T19:10:10.897Z,1.92
2022-11-28T19:15:14.501Z,1.50
2022-11-28T19:20:19.862Z,1.25
2022-11-28T19:25:23.387Z,2.10
2022-11-28T19:30:26.951Z,1.35
2022-11-28T19:35:33.557Z,1.50
2022-11-28T19:40:39.656Z,2.33
2022-11-28T19:45:43.285Z,1.65
2022-11-28T19:50:52.159Z,2.15
2022-11-28T19:55:55.774Z,1.80
2022-11-28T20:01:04.999Z,2.05
2022-11-28T20:06:11.704Z,3.83
2022-11-28T20:11:17.482Z,1.70
2022-11-28T20:21:26.997Z,5.43
2022-11-28T20:26:31.114Z,2.50
2022-11-28T20:31:36.881Z,2.45
2022-11-28T20:41:45.908Z,4.63
2022-11-28T20:46:49.507Z,3.20
2022-11-28T20:51:54.717Z,5.10
2022-11-28T20:57:20.257Z,4.03
2022-11-28T21:02:22.780Z,5.13
2022-11-28T21:07:28.098Z,5.90
2022-11-28T21:12:31.806Z,6.60
2022-11-28T21:17:35.397Z,5.63
2022-11-28T21:22:40.610Z,6.40
2022-11-28T21:27:44.193Z,6.13
2022-11-28T21:32:47.769Z,12.52
2022-11-28T21:37:53.044Z,8.10
2022-11-28T21:42:57.000Z,9.40
2022-11-28T21:48:00.771Z,9.40
2022-11-28T21:53:06.046Z,6.95
2022-11-28T21:58:09.748Z,7.67
2022-11-28T22:03:14.481Z,9.27
2022-11-28T22:08:20.008Z,7.40
2022-11-28T22:13:23.735Z,8.93
2022-11-28T22:18:29.176Z,7.75
2022-11-28T22:23:37.383Z,9.50
2022-11-28T22:28:47.867Z,9.88
2022-11-28T22:33:56.901Z,9.27
2022-11-28T22:39:02.276Z,8.52
2022-11-28T22:44:06.350Z,7.80
2022-11-28T22:49:10.902Z,12.13
2022-11-28T22:54:16.187Z,7.50
2022-11-28T22:59:20.035Z,7.67
2022-11-28T23:04:23.572Z,8.75
2022-11-28T23:09:28.858Z,10.95
2022-11-28T23:14:32.565Z,11.17
2022-11-28T23:19:36.430Z,9.90
2022-11-28T23:24:41.968Z,7.40
2022-11-28T23:34:48.791Z,6.38
2022-11-28T23:39:54.007Z,5.43
2022-11-28T23:44:57.617Z,10.53
2022-11-28T23:50:01.255Z,7.07
2022-11-28T23:55:07.570Z,7.72
